Time;durP1;ratioP1;P1;durP2;ratioP2;P2;SDS_P1;SDS_P2;PMS_P1;PMS_P2;Temp;Humidity;BMP_temperature;BMP_pressure;BME280_temperature;BME280_humidity;BME280_pressure;Samples;Min_cycle;Max_cycle;Signal;HPM_P1;HPM_P2
2021/12/11 00:01:46;;;;;;;;;;;;;;;21.67;31.35;97229.28;4921083;29;1164;-78
2021/12/11 00:04:14;;;;;;;;;;;;;;;21.93;31.25;97235.53;4919738;29;1915;-77
2021/12/11 00:06:41;;;;;;;;;;;;;;;22.05;30.85;97240.28;4920839;29;970;-78
2021/12/11 00:09:11;;;;;;;;;;;;;;;21.91;30.79;97234.41;4919635;29;968;-78
2021/12/11 00:11:37;;;;;;;;;;;;;;;21.73;30.99;97250.06;4920582;29;981;-77
2021/12/11 00:14:04;;;;;;;;;;;;;;;21.57;30.83;97250.28;4919583;29;1005;-77
2021/12/11 00:16:30;;;;;;;;;;;;;;;21.51;30.94;97246.47;4920270;29;971;-78
2021/12/11 00:18:57;;;;;;;;;;;;;;;21.75;31.12;97256.03;4957318;29;1021;-78
2021/12/11 00:21:23;;;;;;;;;;;;;;;21.89;30.73;97253.91;4958715;29;1031;-78
2021/12/11 00:23:51;;;;;;;;;;;;;;;22.10;30.40;97251.03;4994890;28;1910;-78
2021/12/11 00:26:24;;;;;;;;;;;;;;;21.82;30.48;97261.44;4997248;28;908;-78
2021/12/11 00:28:50;;;;;;;;;;;;;;;21.58;31.09;97263.19;4998324;28;1186;-78
2021/12/11 00:31:15;;;;;;;;;;;;;;;21.46;31.00;97266.91;5017069;28;949;-78
2021/12/11 00:33:41;;;;;;;;;;;;;;;21.64;30.81;97278.31;5034916;28;1082;-78
2021/12/11 00:36:10;;;;;;;;;;;;;;;22.05;30.36;97279.16;5037025;28;934;-78
2021/12/11 00:38:35;;;;;;;;;;;;;;;22.06;30.16;97280.72;5035143;28;1099;-78
2021/12/11 00:41:02;;;;;;;;;;;;;;;21.86;30.27;97278.28;5054020;28;1014;-78
2021/12/11 00:43:28;;;;;;;;;;;;;;;21.63;30.40;97282.41;5053762;28;1902;-78
2021/12/11 00:45:54;;;;;;;;;;;;;;;21.68;30.16;97292.34;5056032;28;941;-77
2021/12/11 00:48:20;;;;;;;;;;;;;;;21.85;30.18;97300.13;5038432;28;1186;-78
2021/12/11 00:50:50;;;;;;;;;;;;;;;21.99;29.95;97298.03;5039149;28;970;-78
2021/12/11 00:53:17;;;;;;;;;;;;;;;22.01;30.17;97290.63;5035195;28;1126;-77
2021/12/11 00:55:44;;;;;;;;;;;;;;;21.66;30.13;97284.31;5036090;28;923;-78
2021/12/11 00:58:09;;;;;;;;;;;;;;;21.66;29.88;97294.84;5086761;28;950;-78
2021/12/11 01:00:39;;;;;;;;;;;;;;;21.73;30.20;97298.19;5096378;28;1211;-78
2021/12/11 01:03:05;;;;;;;;;;;;;;;22.27;30.82;97296.91;5095617;28;1902;-78
2021/12/11 01:05:37;;;;;;;;;;;;;;;22.72;30.16;97303.97;5072137;28;959;-77
2021/12/11 01:08:13;;;;;;;;;;;;;;;22.15;31.28;97300.63;5074524;28;1033;-78
2021/12/11 01:10:38;;;;;;;;;;;;;;;21.46;32.85;97300.84;5075650;28;962;-78
2021/12/11 01:13:05;;;;;;;;;;;;;;;21.39;33.24;97309.59;5075022;28;992;-77
2021/12/11 01:15:32;;;;;;;;;;;;;;;21.82;32.45;97309.59;5075066;28;997;-78
2021/12/11 01:18:22;;;;;;;;;;;;;;;22.15;32.00;97306.31;5074592;28;962;-78
2021/12/11 01:21:03;;;;;;;;;;;;;;;21.64;33.23;97306.63;5075271;28;1006;-78
2021/12/11 01:26:17;;;;;;;;;;;;;;;21.88;31.37;97309.78;5035908;28;978;-78
2021/12/11 01:28:42;;;;;;;;;;;;;;;21.72;31.72;97312.81;5034341;28;1029;-78
2021/12/11 01:31:08;;;;;;;;;;;;;;;21.71;31.50;97323.38;5002839;28;1007;-78
2021/12/11 01:33:34;;;;;;;;;;;;;;;21.61;32.06;97315.28;5034296;28;968;-78
2021/12/11 01:35:59;;;;;;;;;;;;;;;21.84;32.58;97326.09;5035169;28;987;-77
2021/12/11 01:38:27;;;;;;;;;;;;;;;21.95;32.63;97325.69;5034259;28;1023;-78
2021/12/11 01:40:53;;;;;;;;;;;;;;;21.96;32.31;97324.44;5035438;28;950;-78
2021/12/11 01:43:22;;;;;;;;;;;;;;;21.71;32.34;97322.53;5033947;28;1906;-78
2021/12/11 01:45:48;;;;;;;;;;;;;;;21.69;31.68;97331.50;4995519;28;1123;-78
2021/12/11 01:48:17;;;;;;;;;;;;;;;21.58;31.76;97325.47;4994418;28;1246;-78
2021/12/11 01:50:43;;;;;;;;;;;;;;;21.58;32.53;97325.47;4979008;28;1134;-77
2021/12/11 01:53:14;;;;;;;;;;;;;;;21.88;32.08;97325.97;4956063;29;997;-78
2021/12/11 01:55:41;;;;;;;;;;;;;;;21.98;31.85;97327.59;4940133;28;1492;-77
2021/12/11 01:58:07;;;;;;;;;;;;;;;21.84;31.73;97321.22;4955996;29;938;-78
2021/12/11 02:00:33;;;;;;;;;;;;;;;21.61;31.52;97324.56;4940197;29;1070;-78
2021/12/11 02:02:59;;;;;;;;;;;;;;;21.59;31.66;97327.03;4982813;28;1931;-78
2021/12/11 02:05:25;;;;;;;;;;;;;;;21.79;31.81;97330.31;5034640;28;996;-78
2021/12/11 02:07:51;;;;;;;;;;;;;;;21.95;31.40;97337.03;5034383;28;1474;-78
2021/12/11 02:10:21;;;;;;;;;;;;;;;22.11;30.66;97322.66;5017691;28;978;-78
2021/12/11 02:12:47;;;;;;;;;;;;;;;21.84;30.67;97326.88;5034456;28;1068;-77
2021/12/11 02:15:15;;;;;;;;;;;;;;;21.74;30.63;97339.41;5034722;28;1015;-78
2021/12/11 02:17:42;;;;;;;;;;;;;;;21.84;30.88;97332.56;5052339;28;1375;-77
2021/12/11 02:20:09;;;;;;;;;;;;;;;22.07;30.58;97327.63;5073898;28;1007;-78
2021/12/11 02:22:38;;;;;;;;;;;;;;;22.04;30.52;97334.25;5074548;28;1102;-77
2021/12/11 02:25:05;;;;;;;;;;;;;;;22.08;30.41;97332.84;5090130;28;1984;-77
2021/12/11 02:27:32;;;;;;;;;;;;;;;22.04;30.18;97335.03;5096988;28;1034;-78
2021/12/11 02:30:01;;;;;;;;;;;;;;;21.75;30.34;97340.97;5096435;28;916;-78
2021/12/11 02:32:32;;;;;;;;;;;;;;;21.56;30.71;97344.97;5097051;28;942;-78
2021/12/11 02:35:00;;;;;;;;;;;;;;;21.63;30.42;97336.19;5095978;28;885;-78
2021/12/11 02:37:36;;;;;;;;;;;;;;;21.80;30.88;97337.56;5095756;28;957;-77
2021/12/11 02:40:14;;;;;;;;;;;;;;;22.00;30.29;97344.91;5096420;28;1007;-78
2021/12/11 02:42:50;;;;;;;;;;;;;;;22.14;30.02;97350.06;5095207;28;1483;-78
2021/12/11 02:45:21;;;;;;;;;;;;;;;21.85;29.99;97351.13;5077142;28;1018;-78
2021/12/11 02:47:47;;;;;;;;;;;;;;;21.64;30.27;97356.81;5094519;28;929;-77
2021/12/11 02:50:16;;;;;;;;;;;;;;;21.59;30.44;97358.19;5093801;28;1028;-78
2021/12/11 02:52:54;;;;;;;;;;;;;;;21.93;30.22;97362.19;5094397;28;1188;-78
2021/12/11 02:55:23;;;;;;;;;;;;;;;21.99;30.19;97360.34;5060383;28;1182;-78
2021/12/11 02:57:52;;;;;;;;;;;;;;;22.03;29.80;97361.78;5093921;28;1029;-78
2021/12/11 03:00:25;;;;;;;;;;;;;;;21.91;29.57;97364.69;5093829;28;993;-78
2021/12/11 03:03:00;;;;;;;;;;;;;;;21.65;29.80;97364.81;5076880;28;1973;-78
2021/12/11 03:05:35;;;;;;;;;;;;;;;21.74;30.27;97370.56;5053382;28;1025;-78
2021/12/11 03:08:01;;;;;;;;;;;;;;;21.83;30.04;97364.97;5040570;28;1036;-78
2021/12/11 03:10:26;;;;;;;;;;;;;;;22.06;29.86;97374.22;5057431;28;958;-78
2021/12/11 03:12:54;;;;;;;;;;;;;;;21.97;29.55;97368.53;5057316;28;1032;-78
2021/12/11 03:15:20;;;;;;;;;;;;;;;21.75;29.57;97374.19;5043499;28;948;-77
2021/12/11 03:17:45;;;;;;;;;;;;;;;21.59;29.87;97364.63;5077505;28;1002;-77
2021/12/11 03:20:12;;;;;;;;;;;;;;;21.57;30.11;97363.53;5077000;28;1147;-78
2021/12/11 03:22:38;;;;;;;;;;;;;;;21.81;30.22;97355.34;5077247;28;1174;-78
2021/12/11 03:25:05;;;;;;;;;;;;;;;21.99;29.65;97349.00;5076589;28;1975;-78
2021/12/11 03:27:30;;;;;;;;;;;;;;;22.03;29.92;97355.34;5077460;28;1060;-78
2021/12/11 03:29:55;;;;;;;;;;;;;;;21.77;29.99;97355.50;5076681;28;1179;-78
2021/12/11 03:32:21;;;;;;;;;;;;;;;21.56;29.76;97350.63;5077248;28;1261;-78
2021/12/11 03:34:47;;;;;;;;;;;;;;;21.55;29.95;97349.03;5076340;28;975;-78
2021/12/11 03:37:12;;;;;;;;;;;;;;;21.78;30.28;97357.06;5077316;28;956;-78
2021/12/11 03:39:39;;;;;;;;;;;;;;;21.92;29.76;97346.47;5059973;28;916;-77
2021/12/11 03:42:06;;;;;;;;;;;;;;;22.03;29.72;97352.50;5082568;28;1012;-78
2021/12/11 03:44:33;;;;;;;;;;;;;;;21.99;29.30;97349.00;5099089;28;1910;-78
2021/12/11 03:46:59;;;;;;;;;;;;;;;21.70;29.61;97350.06;5099470;28;1129;-78
2021/12/11 03:49:25;;;;;;;;;;;;;;;21.47;29.88;97353.38;5099114;28;875;-78
2021/12/11 03:51:50;;;;;;;;;;;;;;;21.70;29.90;97363.44;5099835;28;1011;-78
2021/12/11 03:54:21;;;;;;;;;;;;;;;21.89;29.85;97372.88;5097592;28;927;-77
2021/12/11 03:56:46;;;;;;;;;;;;;;;22.18;29.02;97367.72;5099606;28;909;-78
2021/12/11 03:59:12;;;;;;;;;;;;;;;21.88;29.38;97371.28;5098801;28;925;-78
2021/12/11 04:01:41;;;;;;;;;;;;;;;21.68;29.59;97368.78;5097940;28;986;-78
2021/12/11 04:04:08;;;;;;;;;;;;;;;21.62;29.55;97368.59;5098754;28;1985;-78
2021/12/11 04:06:34;;;;;;;;;;;;;;;22.11;30.10;97370.81;5099187;28;936;-77
2021/12/11 04:08:59;;;;;;;;;;;;;;;22.72;29.80;97362.72;5098388;28;1052;-78
2021/12/11 04:11:26;;;;;;;;;;;;;;;22.32;30.55;97364.31;5099522;28;1027;-78
2021/12/11 04:13:52;;;;;;;;;;;;;;;22.15;30.86;97365.81;5099160;28;1223;-78
2021/12/11 04:16:18;;;;;;;;;;;;;;;22.12;31.44;97363.88;5117454;28;964;-78
2021/12/11 04:18:44;;;;;;;;;;;;;;;21.69;32.53;97371.16;5116053;28;925;-77
2021/12/11 04:21:09;;;;;;;;;;;;;;;21.49;32.88;97379.16;5118224;28;982;-78
2021/12/11 04:23:34;;;;;;;;;;;;;;;22.29;31.11;97378.63;5115872;28;1914;-78
2021/12/11 04:26:00;;;;;;;;;;;;;;;22.04;31.13;97376.75;5117776;28;1020;-78
2021/12/11 04:28:29;;;;;;;;;;;;;;;21.74;31.46;97375.44;5099195;28;1073;-78
2021/12/11 04:30:55;;;;;;;;;;;;;;;21.62;31.38;97377.09;5100723;28;988;-78
2021/12/11 04:33:20;;;;;;;;;;;;;;;21.73;31.16;97377.47;5115903;28;1016;-78
2021/12/11 04:35:46;;;;;;;;;;;;;;;21.71;31.61;97385.66;5117621;28;1070;-78
2021/12/11 04:38:12;;;;;;;;;;;;;;;21.88;31.81;97397.56;5116291;28;913;-78
2021/12/11 04:40:38;;;;;;;;;;;;;;;22.04;31.70;97402.22;5116828;28;1054;-78
2021/12/11 04:43:11;;;;;;;;;;;;;;;22.04;31.72;97405.06;5115799;28;1974;-78
2021/12/11 04:45:45;;;;;;;;;;;;;;;21.72;31.91;97409.88;5101940;28;1070;-78
2021/12/11 04:53:51;;;;;;;;;;;;;;;21.71;32.13;97413.97;5094930;28;1144;-79
2021/12/11 05:04:48;;;;;;;;;;;;;;;21.55;31.31;97409.28;5054222;28;1985;-76
2021/12/11 05:07:28;;;;;;;;;;;;;;;21.84;31.45;97417.50;5054802;28;997;-75
2021/12/11 05:10:03;;;;;;;;;;;;;;;21.96;31.00;97423.56;5054832;28;1030;-76
2021/12/11 05:14:58;;;;;;;;;;;;;;;21.65;31.25;97415.00;5053912;28;906;-76
2021/12/11 05:17:24;;;;;;;;;;;;;;;21.64;30.99;97407.75;5054299;28;1020;-75
2021/12/11 05:19:49;;;;;;;;;;;;;;;21.47;30.93;97405.13;5054016;28;707;-75
2021/12/11 05:22:15;;;;;;;;;;;;;;;21.85;30.84;97413.44;5054491;28;1520;-75
2021/12/11 05:24:41;;;;;;;;;;;;;;;22.01;30.68;97420.13;5054118;28;1910;-75
2021/12/11 05:27:07;;;;;;;;;;;;;;;21.99;30.34;97419.81;5050590;28;899;-75
2021/12/11 05:29:32;;;;;;;;;;;;;;;21.74;30.45;97429.22;5033587;28;1118;-75
2021/12/11 05:31:58;;;;;;;;;;;;;;;21.67;30.14;97429.50;5034343;28;739;-75
2021/12/11 05:34:23;;;;;;;;;;;;;;;21.54;30.49;97435.19;5034023;28;917;-75
2021/12/11 05:36:49;;;;;;;;;;;;;;;21.89;30.42;97429.50;5096477;28;857;-75
2021/12/11 05:39:15;;;;;;;;;;;;;;;22.02;30.16;97424.56;5096293;28;822;-75
2021/12/11 05:41:41;;;;;;;;;;;;;;;22.10;29.83;97414.53;5111359;28;1023;-77
2021/12/11 05:44:06;;;;;;;;;;;;;;;21.85;29.83;97430.41;5096329;28;1910;-77
2021/12/11 05:46:32;;;;;;;;;;;;;;;21.69;30.24;97421.31;5096721;28;777;-77
2021/12/11 05:48:57;;;;;;;;;;;;;;;21.50;30.74;97420.38;5096386;28;755;-77
2021/12/11 05:51:23;;;;;;;;;;;;;;;22.15;30.96;97422.47;5096522;28;754;-76
2021/12/11 05:53:49;;;;;;;;;;;;;;;22.48;30.76;97413.50;5096315;28;731;-77
2021/12/11 05:56:15;;;;;;;;;;;;;;;22.16;31.18;97414.75;5095059;28;765;-77
2021/12/11 05:58:56;;;;;;;;;;;;;;;22.18;30.08;97407.41;5113693;28;877;-77
2021/12/11 06:01:24;;;;;;;;;;;;;;;21.71;30.87;97408.31;5073420;28;937;-77
2021/12/11 06:03:49;;;;;;;;;;;;;;;21.62;31.83;97411.06;5073211;28;1979;-77
2021/12/11 06:06:15;;;;;;;;;;;;;;;21.89;31.46;97418.19;5073567;28;998;-77
2021/12/11 06:08:40;;;;;;;;;;;;;;;22.04;31.19;97430.56;5073351;28;912;-77
2021/12/11 06:11:06;;;;;;;;;;;;;;;21.71;31.40;97430.97;5073884;28;699;-77
2021/12/11 06:13:31;;;;;;;;;;;;;;;21.72;31.12;97415.53;5073350;28;787;-77
2021/12/11 06:15:57;;;;;;;;;;;;;;;21.48;31.57;97417.22;5053516;28;879;-77
2021/12/11 06:18:23;;;;;;;;;;;;;;;21.70;31.57;97437.84;5053134;28;937;-77
2021/12/11 06:20:48;;;;;;;;;;;;;;;21.93;31.21;97441.50;5053750;28;754;-77
2021/12/11 06:23:14;;;;;;;;;;;;;;;21.87;31.13;97440.53;5052874;28;1905;-77
2021/12/11 06:25:40;;;;;;;;;;;;;;;21.81;30.95;97446.78;5053325;28;1317;-77
2021/12/11 06:28:05;;;;;;;;;;;;;;;21.67;31.02;97455.78;5053210;28;928;-77
2021/12/11 06:30:31;;;;;;;;;;;;;;;21.62;30.82;97453.53;5053454;28;945;-77
2021/12/11 06:32:56;;;;;;;;;;;;;;;21.73;31.49;97456.75;5052694;28;981;-77
2021/12/11 06:35:34;;;;;;;;;;;;;;;22.05;30.58;97454.81;5053302;28;936;-77
2021/12/11 06:38:00;;;;;;;;;;;;;;;21.98;30.85;97460.75;5058339;28;841;-77
2021/12/11 06:40:25;;;;;;;;;;;;;;;22.02;30.58;97469.88;5056507;28;786;-77
2021/12/11 06:42:51;;;;;;;;;;;;;;;21.72;30.83;97458.03;5038011;28;1181;-77
2021/12/11 06:45:17;;;;;;;;;;;;;;;21.65;30.73;97466.75;5036540;28;1915;-77
2021/12/11 06:47:42;;;;;;;;;;;;;;;21.75;30.76;97465.56;5020163;28;867;-77
2021/12/11 06:50:08;;;;;;;;;;;;;;;21.96;30.43;97468.88;5036760;28;777;-77
2021/12/11 06:52:33;;;;;;;;;;;;;;;22.03;30.15;97452.44;5023362;28;977;-77
2021/12/11 06:54:59;;;;;;;;;;;;;;;22.08;30.35;97451.06;5056859;28;1038;-77
2021/12/11 06:57:25;;;;;;;;;;;;;;;21.76;30.31;97464.34;4997042;28;922;-77
2021/12/11 06:59:50;;;;;;;;;;;;;;;21.66;30.26;97462.69;4997476;28;924;-77
2021/12/11 07:02:16;;;;;;;;;;;;;;;21.57;30.63;97471.09;4997674;28;1057;-77
2021/12/11 07:04:42;;;;;;;;;;;;;;;21.99;31.33;97465.16;4996281;28;1910;-76
2021/12/11 07:07:07;;;;;;;;;;;;;;;22.72;30.03;97462.78;5016589;28;1107;-77
2021/12/11 07:09:33;;;;;;;;;;;;;;;21.73;32.04;97468.09;5000047;28;759;-77
2021/12/11 07:11:58;;;;;;;;;;;;;;;21.82;32.17;97464.56;5016794;28;1133;-77
2021/12/11 07:14:24;;;;;;;;;;;;;;;21.61;32.52;97466.09;5016413;28;909;-77
2021/12/11 07:16:50;;;;;;;;;;;;;;;21.64;32.84;97476.50;5014901;28;949;-77
2021/12/11 07:19:16;;;;;;;;;;;;;;;21.68;32.96;97482.84;5038712;28;800;-77
2021/12/11 07:21:41;;;;;;;;;;;;;;;21.68;32.80;97465.84;5056554;28;940;-77
2021/12/11 07:24:07;;;;;;;;;;;;;;;22.10;31.49;97462.72;5039539;28;1910;-77
2021/12/11 07:26:34;;;;;;;;;;;;;;;22.23;31.37;97488.97;5039814;28;994;-77
2021/12/11 07:29:07;;;;;;;;;;;;;;;22.23;31.52;97502.34;5082127;28;763;-77
2021/12/11 07:31:33;;;;;;;;;;;;;;;21.92;31.91;97485.25;5097568;28;790;-77
2021/12/11 07:33:59;;;;;;;;;;;;;;;21.80;31.76;97501.81;5099520;28;968;-77
2021/12/11 07:36:24;;;;;;;;;;;;;;;21.69;31.75;97504.22;5116570;28;958;-77
2021/12/11 07:38:50;;;;;;;;;;;;;;;21.70;31.55;97497.31;5116152;28;966;-76
2021/12/11 07:41:15;;;;;;;;;;;;;;;21.85;31.94;97509.72;5116930;28;805;-77
2021/12/11 07:43:41;;;;;;;;;;;;;;;22.09;31.33;97512.13;5116040;28;1976;-77
2021/12/11 07:46:06;;;;;;;;;;;;;;;22.25;31.21;97514.81;5116952;28;719;-77
2021/12/11 07:48:32;;;;;;;;;;;;;;;21.90;31.69;97514.00;5116218;28;819;-77
2021/12/11 07:50:58;;;;;;;;;;;;;;;21.78;31.31;97509.97;5116700;28;706;-77
2021/12/11 07:53:23;;;;;;;;;;;;;;;21.63;31.34;97489.06;5098545;28;1141;-77
2021/12/11 07:55:49;;;;;;;;;;;;;;;21.90;31.86;97499.06;5116486;28;985;-77
2021/12/11 07:58:15;;;;;;;;;;;;;;;22.11;31.27;97495.47;5115860;28;742;-77
2021/12/11 08:00:40;;;;;;;;;;;;;;;22.05;30.90;97497.31;5116423;28;1111;-77
2021/12/11 08:03:07;;;;;;;;;;;;;;;22.14;31.04;97502.28;5116173;28;1973;-77
2021/12/11 08:05:32;;;;;;;;;;;;;;;21.81;31.01;97506.25;5102943;28;785;-77
2021/12/11 08:08:03;;;;;;;;;;;;;;;21.68;30.64;97504.69;5095617;28;944;-77
2021/12/11 08:10:28;;;;;;;;;;;;;;;21.67;31.11;97526.56;5098197;28;837;-77
2021/12/11 08:12:54;;;;;;;;;;;;;;;21.92;31.10;97530.56;5098134;28;793;-77
2021/12/11 08:15:20;;;;;;;;;;;;;;;22.11;30.48;97537.97;5061715;28;980;-77
2021/12/11 08:17:52;;;;;;;;;;;;;;;22.12;30.17;97528.22;5095280;28;1021;-77
2021/12/11 08:20:17;;;;;;;;;;;;;;;21.89;30.35;97552.09;5054999;28;999;-77
2021/12/11 08:22:43;;;;;;;;;;;;;;;21.58;30.57;97544.22;5055289;28;992;-77
2021/12/11 08:25:08;;;;;;;;;;;;;;;21.75;30.83;97539.19;5054980;28;1982;-77
2021/12/11 08:27:34;;;;;;;;;;;;;;;21.87;31.04;97534.78;5014794;28;922;-77
2021/12/11 08:29:59;;;;;;;;;;;;;;;21.91;30.75;97540.28;5014837;28;876;-77
2021/12/11 08:32:25;;;;;;;;;;;;;;;22.04;30.33;97532.56;5015403;28;849;-77
2021/12/11 08:34:51;;;;;;;;;;;;;;;21.91;30.41;97545.97;5014803;28;1018;-77
2021/12/11 08:37:17;;;;;;;;;;;;;;;21.49;30.78;97529.19;4975922;28;1000;-77
2021/12/11 08:39:42;;;;;;;;;;;;;;;21.52;30.54;97528.28;4975719;28;982;-77
2021/12/11 08:42:12;;;;;;;;;;;;;;;21.66;30.65;97518.50;4976124;28;1173;-77
2021/12/11 08:44:38;;;;;;;;;;;;;;;21.79;30.53;97511.56;4975900;28;1978;-77
2021/12/11 08:47:08;;;;;;;;;;;;;;;21.85;30.66;97512.56;4975646;28;963;-77
2021/12/11 08:49:34;;;;;;;;;;;;;;;21.82;30.48;97516.31;4975910;28;799;-77
2021/12/11 08:52:00;;;;;;;;;;;;;;;21.66;30.60;97513.66;4988317;28;1294;-77
2021/12/11 08:54:26;;;;;;;;;;;;;;;21.48;30.49;97499.31;4975695;28;942;-77
2021/12/11 08:56:52;;;;;;;;;;;;;;;21.56;30.70;97509.16;4975801;28;912;-77
2021/12/11 08:59:18;;;;;;;;;;;;;;;21.75;30.54;97510.88;5006527;28;998;-76
2021/12/11 09:01:46;;;;;;;;;;;;;;;21.97;30.21;97510.16;5014608;28;916;-77
2021/12/11 09:04:15;;;;;;;;;;;;;;;21.95;30.32;97489.97;5030264;28;1902;-77
2021/12/11 09:06:42;;;;;;;;;;;;;;;21.83;30.26;97483.13;5030708;28;876;-77
2021/12/11 09:09:07;;;;;;;;;;;;;;;21.61;30.17;97488.75;5048418;28;947;-77
2021/12/11 09:11:35;;;;;;;;;;;;;;;21.62;29.92;97483.88;5054705;28;976;-77
2021/12/11 09:14:00;;;;;;;;;;;;;;;21.84;30.17;97479.81;5054167;28;739;-77
2021/12/11 09:16:30;;;;;;;;;;;;;;;22.02;29.97;97478.38;5054301;28;813;-77
2021/12/11 09:19:07;;;;;;;;;;;;;;;22.11;29.84;97481.31;5054244;28;775;-77
2021/12/11 09:21:38;;;;;;;;;;;;;;;21.66;30.20;97488.19;5054014;28;916;-77
2021/12/11 09:24:06;;;;;;;;;;;;;;;21.58;30.03;97490.44;5050505;28;1909;-77
2021/12/11 09:26:39;;;;;;;;;;;;;;;21.59;30.34;97486.38;5096979;28;754;-77
2021/12/11 09:29:25;;;;;;;;;;;;;;;21.78;30.10;97487.31;5096541;28;825;-77
2021/12/11 09:31:57;;;;;;;;;;;;;;;21.96;29.88;97475.34;5097071;28;758;-77
2021/12/11 09:34:23;;;;;;;;;;;;;;;22.00;29.90;97478.06;5094120;28;828;-77
2021/12/11 09:36:50;;;;;;;;;;;;;;;21.69;29.90;97478.75;5094481;28;947;-77
2021/12/11 09:39:17;;;;;;;;;;;;;;;21.45;30.36;97481.22;5093828;28;872;-77
2021/12/11 09:41:42;;;;;;;;;;;;;;;21.60;30.41;97464.50;5077818;28;746;-77
2021/12/11 09:44:29;;;;;;;;;;;;;;;21.92;29.79;97476.75;5093665;28;1969;-77
2021/12/11 09:46:56;;;;;;;;;;;;;;;22.12;29.43;97471.56;5094174;28;719;-77
2021/12/11 09:49:23;;;;;;;;;;;;;;;21.87;29.59;97474.50;5053386;28;971;-77
2021/12/11 09:51:50;;;;;;;;;;;;;;;21.61;29.91;97463.28;5070252;28;1143;-78
2021/12/11 09:54:22;;;;;;;;;;;;;;;21.59;30.24;97468.59;5073152;28;968;-78
2021/12/11 09:56:52;;;;;;;;;;;;;;;21.55;30.05;97462.25;5078125;28;916;-80
2021/12/11 09:59:18;;;;;;;;;;;;;;;21.84;29.64;97468.50;5073912;28;885;-77
2021/12/11 10:01:44;;;;;;;;;;;;;;;21.18;30.47;97476.00;5073903;28;1087;-77
2021/12/11 10:04:16;;;;;;;;;;;;;;;21.76;31.73;97478.50;5073526;28;1910;-77
2021/12/11 10:07:13;;;;;;;;;;;;;;;22.17;31.27;97473.78;5054101;28;727;-77
2021/12/11 10:09:38;;;;;;;;;;;;;;;22.46;31.40;97481.25;5039983;28;1004;-77
2021/12/11 10:12:05;;;;;;;;;;;;;;;22.56;31.38;97478.00;5054176;28;823;-77
2021/12/11 10:14:33;;;;;;;;;;;;;;;22.17;31.88;97473.78;5052759;28;1607;-77
2021/12/11 10:16:59;;;;;;;;;;;;;;;21.89;32.32;97452.97;5056503;28;865;-77
2021/12/11 10:19:29;;;;;;;;;;;;;;;21.88;32.21;97461.91;5077177;28;894;-77
2021/12/11 10:21:56;;;;;;;;;;;;;;;21.63;32.71;97455.09;5058219;28;1065;-77
2021/12/11 10:24:23;;;;;;;;;;;;;;;21.94;31.97;97454.41;5032171;28;2010;-77
2021/12/11 10:26:50;;;;;;;;;;;;;;;21.84;32.13;97460.00;5118314;28;1204;-77
2021/12/11 10:29:16;;;;;;;;;;;;;;;21.96;31.79;97451.91;5118211;28;817;-77
2021/12/11 10:31:46;;;;;;;;;;;;;;;21.97;31.78;97447.84;5084103;28;1069;-77
2021/12/11 10:34:12;;;;;;;;;;;;;;;21.97;31.44;97442.16;5117842;28;808;-77
2021/12/11 10:36:39;;;;;;;;;;;;;;;21.78;31.81;97444.84;5118271;28;957;-77
2021/12/11 10:39:06;;;;;;;;;;;;;;;21.69;32.08;97446.81;5083693;28;1000;-77
2021/12/11 10:41:32;;;;;;;;;;;;;;;21.78;31.90;97436.34;5118460;28;690;-77
2021/12/11 10:43:59;;;;;;;;;;;;;;;21.69;32.02;97438.31;5117678;28;1905;-77
2021/12/11 10:46:25;;;;;;;;;;;;;;;21.78;31.78;97442.03;5118638;28;900;-77
2021/12/11 10:48:51;;;;;;;;;;;;;;;22.41;32.32;97437.28;5117487;28;774;-77
2021/12/11 10:51:24;;;;;;;;;;;;;;;22.43;32.58;97433.97;5084114;28;964;-77
2021/12/11 10:53:50;;;;;;;;;;;;;;;22.31;31.91;97444.13;5117446;28;954;-77
2021/12/11 10:56:16;;;;;;;;;;;;;;;22.00;32.19;97446.91;5112968;28;944;-77
2021/12/11 10:58:43;;;;;;;;;;;;;;;21.76;32.04;97450.19;5097912;28;792;-77
2021/12/11 11:01:11;;;;;;;;;;;;;;;21.62;32.64;97442.19;5100464;28;762;-77
2021/12/11 11:03:37;;;;;;;;;;;;;;;22.02;31.99;97444.38;5099507;28;1972;-77
2021/12/11 11:06:03;;;;;;;;;;;;;;;21.98;31.84;97438.88;5100442;28;758;-77
2021/12/11 11:08:29;;;;;;;;;;;;;;;22.04;31.72;97436.22;5098888;28;774;-77
2021/12/11 11:10:56;;;;;;;;;;;;;;;22.16;31.60;97432.56;5099998;28;1020;-77
2021/12/11 11:13:22;;;;;;;;;;;;;;;21.97;31.83;97430.84;5099643;28;822;-77
2021/12/11 11:15:47;;;;;;;;;;;;;;;21.81;32.24;97428.97;5099529;28;834;-78
2021/12/11 11:18:14;;;;;;;;;;;;;;;21.87;32.00;97420.69;5098752;28;730;-77
2021/12/11 11:20:42;;;;;;;;;;;;;;;22.13;31.48;97427.03;5099543;28;769;-77
2021/12/11 11:23:08;;;;;;;;;;;;;;;21.68;32.17;97420.53;5099040;28;1914;-78
2021/12/11 11:25:36;;;;;;;;;;;;;;;22.11;31.58;97413.31;5099312;28;794;-77
2021/12/11 11:28:04;;;;;;;;;;;;;;;21.88;32.11;97411.72;5098069;28;824;-77
2021/12/11 11:30:32;;;;;;;;;;;;;;;21.67;31.86;97407.63;5099278;28;1012;-77
2021/12/11 11:32:58;;;;;;;;;;;;;;;21.89;31.64;97415.34;5099738;28;731;-77
2021/12/11 11:35:24;;;;;;;;;;;;;;;21.43;32.85;97409.31;5098188;28;723;-77
2021/12/11 11:37:51;;;;;;;;;;;;;;;21.28;33.01;97404.13;5097977;28;849;-77
2021/12/11 11:40:18;;;;;;;;;;;;;;;21.75;31.66;97403.28;5097830;28;727;-77
2021/12/11 11:42:44;;;;;;;;;;;;;;;21.65;31.77;97390.31;5098638;28;994;-77
2021/12/11 11:45:09;;;;;;;;;;;;;;;21.83;31.45;97396.13;5098652;28;1898;-77
2021/12/11 11:47:35;;;;;;;;;;;;;;;21.28;32.98;97389.97;5099080;28;758;-77
2021/12/11 11:50:02;;;;;;;;;;;;;;;21.54;31.94;97392.75;5098729;28;705;-77
2021/12/11 11:52:27;;;;;;;;;;;;;;;22.19;30.78;97386.31;5099115;28;723;-77
2021/12/11 11:54:53;;;;;;;;;;;;;;;21.89;30.85;97387.03;5098404;28;782;-78
2021/12/11 11:57:32;;;;;;;;;;;;;;;21.91;30.90;97387.34;5098452;28;722;-77
2021/12/11 11:59:58;;;;;;;;;;;;;;;21.65;32.08;97384.66;5098569;28;739;-77
2021/12/11 12:02:24;;;;;;;;;;;;;;;22.43;32.10;97380.09;5098873;28;837;-78
2021/12/11 12:04:50;;;;;;;;;;;;;;;22.68;31.55;97377.06;5098591;28;1905;-77
2021/12/11 12:07:18;;;;;;;;;;;;;;;22.44;31.81;97384.53;5096652;28;900;-77
2021/12/11 12:09:44;;;;;;;;;;;;;;;22.20;31.31;97379.38;5098628;28;749;-77
2021/12/11 12:12:11;;;;;;;;;;;;;;;21.89;31.44;97375.69;5098464;28;738;-77
2021/12/11 12:14:37;;;;;;;;;;;;;;;21.97;31.09;97385.53;5096858;28;947;-77
2021/12/11 12:17:03;;;;;;;;;;;;;;;21.97;31.15;97391.19;5097675;28;766;-77
2021/12/11 12:19:29;;;;;;;;;;;;;;;21.96;30.96;97386.75;5095527;28;897;-77
2021/12/11 12:21:56;;;;;;;;;;;;;;;21.91;31.63;97384.50;5096230;28;974;-77
2021/12/11 12:24:22;;;;;;;;;;;;;;;22.07;31.29;97396.44;5095333;28;1910;-77
2021/12/11 12:26:50;;;;;;;;;;;;;;;21.99;31.38;97392.28;5079020;28;973;-76
2021/12/11 12:29:15;;;;;;;;;;;;;;;21.24;33.49;97397.81;5095525;28;926;-78
2021/12/11 12:31:46;;;;;;;;;;;;;;;21.93;32.37;97396.19;5096203;28;770;-78
2021/12/11 12:34:12;;;;;;;;;;;;;;;21.80;32.02;97402.69;5078240;28;1010;-77
2021/12/11 12:36:38;;;;;;;;;;;;;;;21.80;31.84;97399.84;5095553;28;866;-77
2021/12/11 12:39:04;;;;;;;;;;;;;;;21.68;32.22;97408.44;5095144;28;1386;-77
2021/12/11 12:41:56;;;;;;;;;;;;;;;21.54;32.54;97415.38;5078319;28;855;-77
2021/12/11 12:44:22;;;;;;;;;;;;;;;21.30;33.34;97413.00;5095340;28;1906;-77
2021/12/11 12:46:48;;;;;;;;;;;;;;;21.66;32.41;97414.56;5095283;28;821;-77
2021/12/11 12:49:13;;;;;;;;;;;;;;;21.78;31.83;97418.56;5094934;28;777;-77
2021/12/11 12:51:39;;;;;;;;;;;;;;;21.61;32.32;97408.69;5096370;28;779;-77
2021/12/11 12:54:05;;;;;;;;;;;;;;;21.11;33.32;97408.34;5097826;28;699;-77
2021/12/11 12:56:31;;;;;;;;;;;;;;;21.53;32.13;97417.44;5096270;28;929;-77
2021/12/11 12:59:00;;;;;;;;;;;;;;;21.89;31.46;97415.34;5097207;28;821;-77
2021/12/11 13:01:49;;;;;;;;;;;;;;;22.00;31.04;97412.91;5097684;28;871;-77
2021/12/11 13:04:15;;;;;;;;;;;;;;;22.06;31.14;97416.72;5074350;28;1894;-77
2021/12/11 13:06:42;;;;;;;;;;;;;;;21.70;31.86;97418.03;5074685;28;972;-77
2021/12/11 13:09:09;;;;;;;;;;;;;;;21.75;31.63;97408.94;5040665;28;1039;-77
2021/12/11 13:11:39;;;;;;;;;;;;;;;21.99;30.83;97419.81;5074896;28;735;-77
2021/12/11 13:14:05;;;;;;;;;;;;;;;22.01;30.91;97417.31;5074323;28;909;-77
2021/12/11 13:16:32;;;;;;;;;;;;;;;21.78;31.49;97419.38;5074517;28;1102;-78
2021/12/11 13:18:59;;;;;;;;;;;;;;;21.57;31.91;97408.81;5074574;28;821;-77
2021/12/11 13:21:44;;;;;;;;;;;;;;;21.91;30.89;97415.66;5074986;28;1074;-78
2021/12/11 13:24:10;;;;;;;;;;;;;;;21.82;30.88;97431.34;5074342;28;1969;-78